Pagrindinis puslapis
METAR-TAF:

METAR-TAF

Oro uostai :

Ivalo, Suomija

platuma: 68-37N, ilguma: 027-25E, Aukštis: 147 m

Dabartinis oras

Ataskaita buvo paskelbta 35 minutes, ne 11:20 UTC
Vėjas 3 kt nuo kintamojo kryptimis
Temperatūra 17°C
Drėgmė 68%
Slėgis 1013 hPa
Matomumas 10 km arba daugiau
Su prošvaistėmis ne aukštis 2700 ft

METAR: EFIV 221120Z AUTO VRB03KT 9999 BKN027 17/11 Q1013

Laikas: 14:55 (11:55 UTC)

Prognozė

Ataskaita buvo paskelbta 2 valandos ir 32 minutes, ne 09:23 UTC
Prognozė galioja nuo 22 metu 09 UTC su 22 metu 11 UTC
Vėjas 8 kt iš Pietų/Pietvakarių
Matomumas 10 km arba daugiau
Išsisklaidę debesys ne aukštis 1300 ft
Laikinai
nuo 22 metu 10 UTC su 22 metu 11 UTC
Matomumas: 7000 m
Mažai debesys ne aukštis 2000 ft, Liūtiniai kamuoliniai debesys.
lietus

TAF: EFIV 220923Z 2209/2211 21008KT 9999 SCT013 TEMPO 2210/2211 7000 SHRA FEW020CB

Orai ataskaitas ir orų prognozės (METAR, TAF).

turimą stotys yra geltonos ir raudonos taškus žemėlapyje.

Perkelti pele per norėdami pamatyti stoties vardą.

Tada spustelėkite, norėdami matyti oro stebėjimo ir prognozės.

Norėdami pakeisti žemėlapį: spustelėkite ant žalios mygtukų su juodo kryžiaus žemyn,; žalią mygtuką su brūkšneliu, jei norite nutolinti; arba žalių rodyklių gretimoms žemėlapius.


METAR-TAF: